createdAt,value
2019-03-28T00:00:21.717Z,1027.24
2019-03-28T00:01:21.729Z,1027.30
2019-03-28T00:02:20.842Z,1027.24
2019-03-28T00:03:20.864Z,1027.23
2019-03-28T00:04:20.701Z,1027.28
2019-03-28T00:05:20.671Z,1027.28
2019-03-28T00:06:20.634Z,1027.27
2019-03-28T00:07:20.612Z,1027.30
2019-03-28T00:08:20.590Z,1027.25
2019-03-28T00:09:20.545Z,1027.27
2019-03-28T00:10:20.512Z,1027.27
2019-03-28T00:11:20.471Z,1027.30
2019-03-28T00:12:20.445Z,1027.28
2019-03-28T00:13:20.436Z,1027.29
2019-03-28T00:14:20.387Z,1027.28
2019-03-28T00:15:20.345Z,1027.28
2019-03-28T00:16:20.354Z,1027.30
2019-03-28T00:17:20.287Z,1027.28
2019-03-28T00:18:20.284Z,1027.27
2019-03-28T00:19:20.224Z,1027.23
2019-03-28T00:20:20.198Z,1027.23
2019-03-28T00:21:20.162Z,1027.22
2019-03-28T00:22:20.128Z,1027.23
2019-03-28T00:23:20.121Z,1027.21
2019-03-28T00:24:20.122Z,1027.21
2019-03-28T00:25:20.034Z,1027.24
2019-03-28T00:26:29.437Z,1027.18
2019-03-28T00:27:19.974Z,1027.18
2019-03-28T00:28:19.959Z,1027.20
2019-03-28T00:29:19.915Z,1027.18
2019-03-28T00:30:19.878Z,1027.23
2019-03-28T00:31:19.913Z,1027.20
2019-03-28T00:32:19.817Z,1027.21
2019-03-28T00:33:20.211Z,1027.21
2019-03-28T00:34:19.748Z,1027.21
2019-03-28T00:35:19.764Z,1027.19
2019-03-28T00:36:20.553Z,1027.20
2019-03-28T00:37:20.554Z,1027.21
2019-03-28T00:38:20.556Z,1027.21
2019-03-28T00:39:19.602Z,1027.17
2019-03-28T00:40:19.564Z,1027.20
2019-03-28T00:41:20.156Z,1027.21
2019-03-28T00:42:19.498Z,1027.16
2019-03-28T00:43:19.514Z,1027.21
2019-03-28T00:44:19.434Z,1027.16
2019-03-28T00:45:19.404Z,1027.17
2019-03-28T00:46:19.369Z,1027.18
2019-03-28T00:47:19.357Z,1027.16
2019-03-28T00:48:19.307Z,1027.18
2019-03-28T00:49:19.300Z,1027.21
2019-03-28T00:50:19.279Z,1027.20
2019-03-28T00:51:19.214Z,1027.17
2019-03-28T00:52:19.180Z,1027.17
2019-03-28T00:53:19.149Z,1027.19
2019-03-28T00:54:19.150Z,1027.23
2019-03-28T00:55:19.092Z,1027.19
2019-03-28T00:56:19.056Z,1027.26
2019-03-28T00:57:19.257Z,1027.23
2019-03-28T00:58:18.992Z,1027.25
2019-03-28T00:59:19.191Z,1027.29
2019-03-28T01:00:18.927Z,1027.29
2019-03-28T01:01:18.899Z,1027.26
2019-03-28T01:02:18.887Z,1027.24
2019-03-28T01:03:18.834Z,1027.25
2019-03-28T01:04:18.826Z,1027.24
2019-03-28T01:05:18.768Z,1027.23
2019-03-28T01:06:18.738Z,1027.25
2019-03-28T01:07:18.716Z,1027.23
2019-03-28T01:08:18.681Z,1027.30
2019-03-28T01:09:18.668Z,1027.28
2019-03-28T01:10:18.619Z,1027.25
2019-03-28T01:11:18.586Z,1027.26
2019-03-28T01:12:18.556Z,1027.26
2019-03-28T01:13:18.519Z,1027.24
2019-03-28T01:14:18.511Z,1027.23
2019-03-28T01:15:18.466Z,1027.21
2019-03-28T01:16:18.425Z,1027.22
2019-03-28T01:17:18.388Z,1027.22
2019-03-28T01:18:18.370Z,1027.21
2019-03-28T01:19:18.347Z,1027.26
2019-03-28T01:20:18.282Z,1027.27
2019-03-28T01:21:18.280Z,1027.26
2019-03-28T01:22:18.227Z,1027.23
2019-03-28T01:23:18.233Z,1027.25
2019-03-28T01:24:18.182Z,1027.23
2019-03-28T01:25:18.138Z,1027.28
2019-03-28T01:26:18.375Z,1027.27
2019-03-28T01:27:18.071Z,1027.28
2019-03-28T01:28:18.040Z,1027.23
2019-03-28T01:29:18.029Z,1027.24
2019-03-28T01:30:17.974Z,1027.26
2019-03-28T01:31:17.934Z,1027.23
2019-03-28T01:32:17.917Z,1027.26
2019-03-28T01:33:18.243Z,1027.22
2019-03-28T01:34:17.870Z,1027.24
2019-03-28T01:35:17.816Z,1027.20
2019-03-28T01:36:17.790Z,1027.22
2019-03-28T01:37:17.751Z,1027.22
2019-03-28T01:38:17.730Z,1027.22
2019-03-28T01:39:17.717Z,1027.22
2019-03-28T01:40:17.662Z,1027.23
2019-03-28T01:41:17.630Z,1027.23
2019-03-28T01:42:17.592Z,1027.27
2019-03-28T01:43:17.566Z,1027.22
2019-03-28T01:44:17.572Z,1027.19
2019-03-28T01:45:17.497Z,1027.22
2019-03-28T01:46:17.470Z,1027.27
2019-03-28T01:47:18.073Z,1027.26
2019-03-28T01:48:17.407Z,1027.23
2019-03-28T01:49:17.403Z,1027.26
2019-03-28T01:50:17.363Z,1027.23
2019-03-28T01:51:17.317Z,1027.24
2019-03-28T01:52:17.299Z,1027.23
2019-03-28T01:53:17.257Z,1027.25
2019-03-28T01:54:17.244Z,1027.25
2019-03-28T01:55:17.249Z,1027.26
2019-03-28T01:56:17.179Z,1027.26
2019-03-28T01:57:17.169Z,1027.26
2019-03-28T01:58:17.096Z,1027.29
2019-03-28T01:59:17.061Z,1027.31
2019-03-28T02:00:17.108Z,1027.26
2019-03-28T02:01:16.995Z,1027.28
2019-03-28T02:02:16.960Z,1027.30
2019-03-28T02:03:17.672Z,1027.27
2019-03-28T02:04:16.909Z,1027.28
2019-03-28T02:05:16.895Z,1027.32
2019-03-28T02:06:16.881Z,1027.29
2019-03-28T02:07:16.801Z,1027.27
2019-03-28T02:08:16.852Z,1027.28
2019-03-28T02:09:16.743Z,1027.26
2019-03-28T02:10:16.746Z,1027.26
2019-03-28T02:11:16.693Z,1027.28
2019-03-28T02:12:16.664Z,1027.31
2019-03-28T02:13:16.623Z,1027.29
2019-03-28T02:14:16.632Z,1027.27
2019-03-28T02:15:16.586Z,1027.29
2019-03-28T02:16:16.536Z,1027.33
2019-03-28T02:17:16.497Z,1027.33
2019-03-28T02:18:16.464Z,1027.28
2019-03-28T02:19:16.446Z,1027.29
2019-03-28T02:20:16.445Z,1027.32
2019-03-28T02:21:16.376Z,1027.34
2019-03-28T02:22:16.513Z,1027.35
2019-03-28T02:23:16.308Z,1027.34
2019-03-28T02:24:16.288Z,1027.36
2019-03-28T02:25:16.749Z,1027.42
2019-03-28T02:26:16.219Z,1027.38
2019-03-28T02:27:23.990Z,1027.41
2019-03-28T02:28:16.255Z,1027.42
2019-03-28T02:29:16.120Z,1027.42
2019-03-28T02:30:16.112Z,1027.35
2019-03-28T02:31:16.723Z,1027.44
2019-03-28T02:32:16.028Z,1027.44
2019-03-28T02:33:15.994Z,1027.41
2019-03-28T02:34:15.965Z,1027.46
2019-03-28T02:35:15.967Z,1027.42
2019-03-28T02:36:15.899Z,1027.47
2019-03-28T02:37:15.867Z,1027.44
2019-03-28T02:38:15.834Z,1027.43
2019-03-28T02:39:15.813Z,1027.44
2019-03-28T02:40:16.768Z,1027.44
2019-03-28T02:41:15.752Z,1027.40
2019-03-28T02:42:15.709Z,1027.42
2019-03-28T02:43:15.685Z,1027.44
2019-03-28T02:44:15.649Z,1027.48
2019-03-28T02:45:15.857Z,1027.45
2019-03-28T02:46:15.579Z,1027.47
2019-03-28T02:47:15.559Z,1027.45
2019-03-28T02:48:15.542Z,1027.45
2019-03-28T02:49:15.485Z,1027.44
2019-03-28T02:50:15.707Z,1027.49
2019-03-28T02:51:15.431Z,1027.53
2019-03-28T02:52:15.396Z,1027.47
2019-03-28T02:53:15.362Z,1027.47
2019-03-28T02:54:15.333Z,1027.45
2019-03-28T02:55:15.319Z,1027.47
2019-03-28T02:56:15.946Z,1027.49
2019-03-28T02:57:15.239Z,1027.46
2019-03-28T02:58:15.199Z,1027.46
2019-03-28T02:59:15.182Z,1027.49
2019-03-28T03:00:15.260Z,1027.45
2019-03-28T03:01:15.125Z,1027.45
2019-03-28T03:02:15.076Z,1027.46
2019-03-28T03:03:15.062Z,1027.43
2019-03-28T03:04:15.022Z,1027.43
2019-03-28T03:05:14.982Z,1027.43
2019-03-28T03:06:14.976Z,1027.47
2019-03-28T03:07:14.939Z,1027.44
2019-03-28T03:08:14.893Z,1027.46
2019-03-28T03:09:14.861Z,1027.48
2019-03-28T03:10:15.594Z,1027.50
2019-03-28T03:11:14.821Z,1027.55
2019-03-28T03:12:14.777Z,1027.52
2019-03-28T03:13:14.727Z,1027.45
2019-03-28T03:14:14.702Z,1027.48
2019-03-28T03:15:14.684Z,1027.52
2019-03-28T03:16:14.663Z,1027.51
2019-03-28T03:17:15.774Z,1027.52
2019-03-28T03:18:14.577Z,1027.50
2019-03-28T03:19:14.545Z,1027.50
2019-03-28T03:20:14.523Z,1027.44
2019-03-28T03:21:14.517Z,1027.52
2019-03-28T03:22:14.448Z,1027.52
2019-03-28T03:23:14.429Z,1027.50
2019-03-28T03:24:14.386Z,1027.48
2019-03-28T03:25:14.353Z,1027.48
2019-03-28T03:26:14.354Z,1027.50
2019-03-28T03:27:14.285Z,1027.53
2019-03-28T03:28:14.262Z,1027.52
2019-03-28T03:29:14.230Z,1027.54
2019-03-28T03:30:14.224Z,1027.55
2019-03-28T03:31:20.330Z,1027.53
2019-03-28T03:32:14.143Z,1027.48
2019-03-28T03:33:14.096Z,1027.49
2019-03-28T03:34:14.071Z,1027.51
2019-03-28T03:35:14.054Z,1027.52
2019-03-28T03:36:14.045Z,1027.51
2019-03-28T03:37:13.986Z,1027.52
2019-03-28T03:38:13.947Z,1027.51
2019-03-28T03:39:14.050Z,1027.49
2019-03-28T03:40:13.882Z,1027.59
2019-03-28T03:41:13.889Z,1027.51
2019-03-28T03:42:13.821Z,1027.47
2019-03-28T03:43:13.801Z,1027.52
2019-03-28T03:44:13.759Z,1027.54
2019-03-28T03:45:13.728Z,1027.48
2019-03-28T03:46:13.723Z,1027.49
2019-03-28T03:47:13.677Z,1027.55
2019-03-28T03:48:13.628Z,1027.51
2019-03-28T03:49:13.595Z,1027.48
2019-03-28T03:50:13.569Z,1027.51
2019-03-28T03:51:14.567Z,1027.48
2019-03-28T03:52:13.505Z,1027.52
2019-03-28T03:53:13.493Z,1027.53
2019-03-28T03:54:13.450Z,1027.49
2019-03-28T03:55:13.406Z,1027.55
2019-03-28T03:56:13.401Z,1027.53
2019-03-28T03:57:13.351Z,1027.53
2019-03-28T03:58:16.165Z,1027.54
2019-03-28T03:59:13.306Z,1027.58
2019-03-28T04:00:13.255Z,1027.55
2019-03-28T04:01:13.252Z,1027.56
2019-03-28T04:02:13.190Z,1027.54
2019-03-28T04:03:13.158Z,1027.56
2019-03-28T04:04:13.130Z,1027.57
2019-03-28T04:05:13.100Z,1027.59
2019-03-28T04:06:13.218Z,1027.59
2019-03-28T04:07:13.102Z,1027.62
2019-03-28T04:08:13.687Z,1027.61
2019-03-28T04:09:12.987Z,1027.60
2019-03-28T04:10:13.013Z,1027.62
2019-03-28T04:11:13.037Z,1027.62
2019-03-28T04:12:12.997Z,1027.64
2019-03-28T04:13:12.849Z,1027.59
2019-03-28T04:14:12.823Z,1027.64
2019-03-28T04:15:12.775Z,1027.61
2019-03-28T04:16:12.756Z,1027.55
2019-03-28T04:17:12.773Z,1027.63
2019-03-28T04:18:13.781Z,1027.65
2019-03-28T04:19:12.675Z,1027.61
2019-03-28T04:20:12.623Z,1027.67
2019-03-28T04:21:12.659Z,1027.66
2019-03-28T04:22:12.685Z,1027.66
2019-03-28T04:23:12.541Z,1027.66
2019-03-28T04:24:12.518Z,1027.68
2019-03-28T04:25:13.652Z,1027.66
2019-03-28T04:26:12.435Z,1027.65
2019-03-28T04:27:12.730Z,1027.67
2019-03-28T04:28:12.726Z,1027.63
2019-03-28T04:29:12.337Z,1027.65
2019-03-28T04:30:12.303Z,1027.63
2019-03-28T04:31:12.290Z,1027.67
2019-03-28T04:32:12.322Z,1027.70
2019-03-28T04:33:12.215Z,1027.70
2019-03-28T04:34:12.182Z,1027.74
2019-03-28T04:35:12.147Z,1027.71
2019-03-28T04:36:12.122Z,1027.68
2019-03-28T04:37:12.131Z,1027.74
2019-03-28T04:38:12.059Z,1027.73
2019-03-28T04:39:12.020Z,1027.73
2019-03-28T04:40:12.002Z,1027.77
2019-03-28T04:41:11.962Z,1027.82
2019-03-28T04:42:11.955Z,1027.76
2019-03-28T04:43:11.892Z,1027.78
2019-03-28T04:44:11.875Z,1027.81
2019-03-28T04:45:11.834Z,1027.77
2019-03-28T04:46:11.805Z,1027.80
2019-03-28T04:47:11.789Z,1027.85
2019-03-28T04:48:11.745Z,1027.90
2019-03-28T04:49:11.703Z,1027.91
2019-03-28T04:50:11.676Z,1027.90
2019-03-28T04:51:11.906Z,1027.91
2019-03-28T04:52:11.645Z,1027.91
2019-03-28T04:53:11.732Z,1027.90
2019-03-28T04:54:11.587Z,1027.90
2019-03-28T04:55:11.513Z,1027.90
2019-03-28T04:56:12.397Z,1027.90
2019-03-28T04:57:11.475Z,1027.86
2019-03-28T04:58:11.421Z,1027.87
2019-03-28T04:59:11.387Z,1027.85
2019-03-28T05:00:11.367Z,1027.87
2019-03-28T05:01:11.326Z,1027.88
2019-03-28T05:02:11.325Z,1027.88
2019-03-28T05:03:11.259Z,1027.91
2019-03-28T05:04:11.228Z,1027.93
2019-03-28T05:05:11.195Z,1027.92
2019-03-28T05:06:11.164Z,1027.97
2019-03-28T05:07:11.158Z,1027.99
2019-03-28T05:08:11.112Z,1027.95
2019-03-28T05:09:11.187Z,1027.95
2019-03-28T05:10:11.044Z,1027.95
2019-03-28T05:11:11.025Z,1027.93
2019-03-28T05:12:11.041Z,1027.95
2019-03-28T05:13:11.044Z,1027.95
2019-03-28T05:14:11.382Z,1027.97
2019-03-28T05:15:10.882Z,1027.96
2019-03-28T05:16:10.858Z,1027.95
2019-03-28T05:17:10.820Z,1027.95
2019-03-28T05:18:10.823Z,1028.00
2019-03-28T05:19:10.757Z,1027.98
2019-03-28T05:20:13.157Z,1028.01
2019-03-28T05:21:10.696Z,1028.04
2019-03-28T05:22:10.663Z,1028.02
2019-03-28T05:23:10.665Z,1028.04
2019-03-28T05:24:10.598Z,1028.04
2019-03-28T05:25:10.572Z,1028.07
2019-03-28T05:26:10.533Z,1028.01
2019-03-28T05:27:10.514Z,1028.04
2019-03-28T05:28:10.501Z,1028.03
2019-03-28T05:29:10.446Z,1028.08
2019-03-28T05:30:10.417Z,1028.10
2019-03-28T05:31:10.383Z,1028.08
2019-03-28T05:32:10.346Z,1028.08
2019-03-28T05:33:10.349Z,1028.11
2019-03-28T05:34:10.318Z,1028.07
2019-03-28T05:35:10.262Z,1028.05
2019-03-28T05:36:10.232Z,1028.07
2019-03-28T05:37:10.497Z,1028.14
2019-03-28T05:38:10.197Z,1028.07
2019-03-28T05:39:10.131Z,1028.05
2019-03-28T05:40:10.994Z,1028.08
2019-03-28T05:41:10.069Z,1028.07
2019-03-28T05:42:10.033Z,1028.12
2019-03-28T05:43:10.025Z,1028.11
2019-03-28T05:44:10.008Z,1028.09
2019-03-28T05:45:09.947Z,1028.08
2019-03-28T05:46:09.914Z,1028.10
2019-03-28T05:47:09.885Z,1028.13
2019-03-28T05:48:09.881Z,1028.19
2019-03-28T05:49:09.819Z,1028.14
2019-03-28T05:50:09.785Z,1028.16
2019-03-28T05:51:09.755Z,1028.19
2019-03-28T05:52:11.712Z,1028.19
2019-03-28T05:53:09.714Z,1028.18
2019-03-28T05:54:09.735Z,1028.18
2019-03-28T05:55:09.634Z,1028.19
2019-03-28T05:56:09.597Z,1028.20
2019-03-28T05:57:09.569Z,1028.20
2019-03-28T05:58:09.814Z,1028.22
2019-03-28T05:59:10.990Z,1028.21
2019-03-28T06:00:09.470Z,1028.22
2019-03-28T06:01:09.440Z,1028.20
2019-03-28T06:02:09.413Z,1028.31
2019-03-28T06:03:09.440Z,1028.27
2019-03-28T06:04:09.347Z,1028.26
2019-03-28T06:05:09.313Z,1028.29
2019-03-28T06:06:09.285Z,1028.31
2019-03-28T06:07:10.299Z,1028.32
2019-03-28T06:08:09.216Z,1028.33
2019-03-28T06:09:09.219Z,1028.36
2019-03-28T06:10:09.160Z,1028.39
2019-03-28T06:11:09.130Z,1028.37
2019-03-28T06:12:09.094Z,1028.41
2019-03-28T06:13:09.071Z,1028.40
2019-03-28T06:14:09.059Z,1028.42
2019-03-28T06:15:09.000Z,1028.47
2019-03-28T06:16:08.973Z,1028.49
2019-03-28T06:17:08.953Z,1028.50
2019-03-28T06:18:08.915Z,1028.50
2019-03-28T06:19:08.899Z,1028.52
2019-03-28T06:20:08.907Z,1028.56
2019-03-28T06:21:08.816Z,1028.55
2019-03-28T06:22:08.808Z,1028.56
2019-03-28T06:23:08.753Z,1028.61
2019-03-28T06:24:08.749Z,1028.58
2019-03-28T06:25:08.695Z,1028.62
2019-03-28T06:26:08.659Z,1028.62
2019-03-28T06:27:08.627Z,1028.62
2019-03-28T06:28:08.598Z,1028.64
2019-03-28T06:29:08.847Z,1028.62
2019-03-28T06:30:08.537Z,1028.67
2019-03-28T06:31:08.506Z,1028.69
2019-03-28T06:32:08.486Z,1028.69
2019-03-28T06:33:08.590Z,1028.71
2019-03-28T06:34:08.436Z,1028.69
2019-03-28T06:35:08.382Z,1028.74
2019-03-28T06:36:08.348Z,1028.81
2019-03-28T06:37:08.322Z,1028.77
2019-03-28T06:38:08.285Z,1028.80
2019-03-28T06:39:08.282Z,1028.81
2019-03-28T06:40:08.225Z,1028.83
2019-03-28T06:41:08.194Z,1028.79
2019-03-28T06:42:08.159Z,1028.73
2019-03-28T06:43:08.139Z,1028.80
2019-03-28T06:44:08.126Z,1028.81
2019-03-28T06:45:08.068Z,1028.76
2019-03-28T06:46:08.036Z,1028.76
2019-03-28T06:47:08.005Z,1028.78
2019-03-28T06:48:07.977Z,1028.77
2019-03-28T06:49:07.989Z,1028.77
2019-03-28T06:50:08.024Z,1028.75
2019-03-28T06:51:07.888Z,1028.79
2019-03-28T06:52:07.923Z,1028.77
2019-03-28T06:53:07.819Z,1028.83
2019-03-28T06:54:07.821Z,1028.80
2019-03-28T06:55:07.849Z,1028.79
2019-03-28T06:56:07.725Z,1028.79
2019-03-28T06:57:07.761Z,1028.83
2019-03-28T06:58:07.667Z,1028.86
2019-03-28T06:59:07.657Z,1028.81
2019-03-28T07:00:07.604Z,1028.88
2019-03-28T07:01:07.642Z,1028.86
2019-03-28T07:02:07.559Z,1028.89
2019-03-28T07:03:07.508Z,1028.93
2019-03-28T07:04:07.483Z,1028.92
2019-03-28T07:05:07.474Z,1028.97
2019-03-28T07:06:07.418Z,1028.95
2019-03-28T07:07:07.386Z,1028.95
2019-03-28T07:08:07.367Z,1028.95
2019-03-28T07:09:07.322Z,1028.95
2019-03-28T07:10:07.326Z,1029.01
2019-03-28T07:11:07.264Z,1028.96
2019-03-28T07:12:07.232Z,1028.96
2019-03-28T07:13:07.200Z,1029.01
2019-03-28T07:14:07.166Z,1029.02
2019-03-28T07:15:07.163Z,1028.95
2019-03-28T07:16:07.117Z,1029.03
2019-03-28T07:17:07.078Z,1029.04
2019-03-28T07:18:07.043Z,1028.98
2019-03-28T07:19:07.009Z,1029.03
2019-03-28T07:20:09.004Z,1029.02
2019-03-28T07:21:06.947Z,1029.07
2019-03-28T07:22:06.919Z,1029.07
2019-03-28T07:23:06.887Z,1029.08
2019-03-28T07:24:06.865Z,1029.06
2019-03-28T07:25:06.858Z,1029.06
2019-03-28T07:26:06.799Z,1029.10
2019-03-28T07:27:06.775Z,1029.07
2019-03-28T07:28:06.753Z,1029.03
2019-03-28T07:29:06.703Z,1029.04
2019-03-28T07:30:06.701Z,1029.03
2019-03-28T07:31:06.636Z,1029.09
2019-03-28T07:32:06.611Z,1029.10
2019-03-28T07:33:06.586Z,1029.08
2019-03-28T07:34:06.549Z,1029.08
2019-03-28T07:35:06.645Z,1029.11
2019-03-28T07:36:06.487Z,1029.11
2019-03-28T07:37:06.455Z,1029.14
2019-03-28T07:38:06.420Z,1029.12
2019-03-28T07:39:06.402Z,1029.17
2019-03-28T07:40:06.383Z,1029.14
2019-03-28T07:41:06.342Z,1029.15
2019-03-28T07:42:06.302Z,1029.10
2019-03-28T07:43:06.271Z,1029.10
2019-03-28T07:44:06.245Z,1029.16
2019-03-28T07:45:06.235Z,1029.17
2019-03-28T07:46:06.175Z,1029.19
2019-03-28T07:47:06.152Z,1029.17
2019-03-28T07:48:06.136Z,1029.21
2019-03-28T07:49:06.093Z,1029.23
2019-03-28T07:50:06.145Z,1029.28
2019-03-28T07:51:06.078Z,1029.24
2019-03-28T07:52:05.996Z,1029.22
2019-03-28T07:53:05.964Z,1029.26
2019-03-28T07:54:05.930Z,1029.25
2019-03-28T07:55:05.929Z,1029.25
2019-03-28T07:56:05.873Z,1029.26
2019-03-28T07:57:05.841Z,1029.27
2019-03-28T07:58:07.446Z,1029.28
2019-03-28T07:59:05.783Z,1029.28
2019-03-28T08:00:05.757Z,1029.35
2019-03-28T08:01:05.744Z,1029.35
2019-03-28T08:02:05.690Z,1029.29
2019-03-28T08:03:05.660Z,1029.32
2019-03-28T08:04:05.634Z,1029.33
2019-03-28T08:05:05.599Z,1029.30
2019-03-28T08:06:05.601Z,1029.34
2019-03-28T08:07:05.562Z,1029.29
2019-03-28T08:08:05.505Z,1029.28
2019-03-28T08:09:05.482Z,1029.28
2019-03-28T08:10:05.448Z,1029.27
2019-03-28T08:11:05.506Z,1029.36
2019-03-28T08:12:05.382Z,1029.31
2019-03-28T08:13:05.355Z,1029.29
2019-03-28T08:14:05.321Z,1029.30
2019-03-28T08:15:05.335Z,1029.32
2019-03-28T08:16:05.299Z,1029.33
2019-03-28T08:17:05.238Z,1029.34
2019-03-28T08:18:05.221Z,1029.38
2019-03-28T08:19:07.826Z,1029.37
2019-03-28T08:20:05.141Z,1029.43
2019-03-28T08:21:05.138Z,1029.43
2019-03-28T08:22:05.082Z,1029.42
2019-03-28T08:23:05.052Z,1029.48
2019-03-28T08:24:05.025Z,1029.42
2019-03-28T08:25:09.597Z,1029.48
2019-03-28T08:26:04.986Z,1029.46
2019-03-28T08:27:04.932Z,1029.45
2019-03-28T08:28:04.938Z,1029.48
2019-03-28T08:29:04.866Z,1029.48
2019-03-28T08:30:17.510Z,1029.52
2019-03-28T08:31:04.833Z,1029.54
2019-03-28T08:32:04.784Z,1029.54
2019-03-28T08:33:04.747Z,1029.60
2019-03-28T08:34:04.727Z,1029.58
2019-03-28T08:35:04.707Z,1029.64
2019-03-28T08:36:04.695Z,1029.61
2019-03-28T08:37:04.636Z,1029.60
2019-03-28T08:38:04.690Z,1029.59
2019-03-28T08:39:04.562Z,1029.57
2019-03-28T08:40:04.537Z,1029.60
2019-03-28T08:41:07.133Z,1029.78
2019-03-28T08:42:04.476Z,1029.59
2019-03-28T08:43:04.442Z,1029.61
2019-03-28T08:44:07.223Z,1029.58
2019-03-28T08:45:04.386Z,1029.58
2019-03-28T08:46:04.411Z,1029.64
2019-03-28T08:47:06.191Z,1029.62
2019-03-28T08:48:04.338Z,1029.57
2019-03-28T08:49:04.267Z,1029.57
2019-03-28T08:50:04.238Z,1029.56
2019-03-28T08:51:04.240Z,1029.58
2019-03-28T08:52:04.201Z,1029.59
2019-03-28T08:53:04.148Z,1029.59
2019-03-28T08:54:04.112Z,1029.61
2019-03-28T08:55:04.083Z,1029.60
2019-03-28T08:56:04.061Z,1029.68
2019-03-28T08:57:04.052Z,1029.65
2019-03-28T08:58:03.991Z,1029.66
2019-03-28T08:59:04.119Z,1029.67
2019-03-28T09:00:03.932Z,1029.65
2019-03-28T09:01:05.898Z,1029.64
2019-03-28T09:02:05.103Z,1029.68
2019-03-28T09:03:04.642Z,1029.67
2019-03-28T09:04:03.895Z,1029.76
2019-03-28T09:05:03.785Z,1029.71
2019-03-28T09:06:03.758Z,1029.74
2019-03-28T09:07:03.745Z,1029.69
2019-03-28T09:08:03.694Z,1029.72
2019-03-28T09:09:03.672Z,1029.75
2019-03-28T09:10:03.631Z,1029.71
2019-03-28T09:11:03.613Z,1029.73
2019-03-28T09:12:03.604Z,1029.73
2019-03-28T09:13:03.546Z,1029.69
2019-03-28T09:14:03.523Z,1029.70
2019-03-28T09:15:03.486Z,1029.70
2019-03-28T09:16:03.461Z,1029.69
2019-03-28T09:17:03.456Z,1029.67
2019-03-28T09:18:03.395Z,1029.66
2019-03-28T09:19:03.368Z,1029.66
2019-03-28T09:20:03.337Z,1029.61
2019-03-28T09:21:03.309Z,1029.67
2019-03-28T09:22:03.305Z,1029.67
2019-03-28T09:23:03.248Z,1029.73
2019-03-28T09:24:03.220Z,1029.72
2019-03-28T09:25:03.195Z,1029.76
2019-03-28T09:26:04.560Z,1029.72
2019-03-28T09:27:03.155Z,1029.72
2019-03-28T09:28:03.114Z,1029.70
2019-03-28T09:29:03.076Z,1029.65
2019-03-28T09:30:03.047Z,1029.68
2019-03-28T09:31:03.019Z,1029.60
2019-03-28T09:32:03.013Z,1029.59
2019-03-28T09:33:02.963Z,1029.61
2019-03-28T09:34:02.981Z,1029.59
2019-03-28T09:35:02.910Z,1029.60
2019-03-28T09:36:02.868Z,1029.64
2019-03-28T09:37:02.868Z,1029.67
2019-03-28T09:38:02.820Z,1029.71
2019-03-28T09:39:02.779Z,1029.70
2019-03-28T09:40:02.754Z,1029.70
2019-03-28T09:41:02.729Z,1029.75
2019-03-28T09:42:02.718Z,1029.74
2019-03-28T09:43:02.659Z,1029.74
2019-03-28T09:44:02.632Z,1029.72
2019-03-28T09:45:02.611Z,1029.79
2019-03-28T09:46:02.573Z,1029.70
2019-03-28T09:47:02.566Z,1029.67
2019-03-28T09:48:02.512Z,1029.63
2019-03-28T09:49:02.488Z,1029.63
2019-03-28T09:50:02.465Z,1029.67
2019-03-28T09:51:02.422Z,1029.72
2019-03-28T09:52:02.401Z,1029.67
2019-03-28T09:53:02.398Z,1029.74
2019-03-28T09:54:02.339Z,1029.69
2019-03-28T09:55:02.310Z,1029.69
2019-03-28T09:56:02.276Z,1029.62
2019-03-28T09:57:02.252Z,1029.63
2019-03-28T09:58:02.250Z,1029.63
2019-03-28T09:59:02.194Z,1029.60
2019-03-28T10:00:02.166Z,1029.60
2019-03-28T10:01:03.426Z,1029.56
2019-03-28T10:02:02.525Z,1029.53
2019-03-28T10:03:02.089Z,1029.57
2019-03-28T10:04:02.043Z,1029.53
2019-03-28T10:05:02.050Z,1029.55
2019-03-28T10:06:01.981Z,1029.59
2019-03-28T10:07:01.981Z,1029.61
2019-03-28T10:08:01.946Z,1029.61
2019-03-28T10:09:01.911Z,1029.61
2019-03-28T10:10:02.056Z,1029.65
2019-03-28T10:11:01.836Z,1029.59
2019-03-28T10:12:01.815Z,1029.66
2019-03-28T10:13:01.797Z,1029.56
2019-03-28T10:14:01.747Z,1029.65
2019-03-28T10:15:01.772Z,1029.67
2019-03-28T10:16:01.692Z,1029.71
2019-03-28T10:17:01.713Z,1029.69
2019-03-28T10:18:01.651Z,1029.66
2019-03-28T10:19:01.595Z,1029.65
2019-03-28T10:20:01.563Z,1029.68
2019-03-28T10:21:01.540Z,1029.63
2019-03-28T10:22:01.517Z,1029.65
2019-03-28T10:23:01.501Z,1029.65
2019-03-28T10:24:01.447Z,1029.68
2019-03-28T10:25:01.422Z,1029.67
2019-03-28T10:26:01.393Z,1029.70
2019-03-28T10:27:01.363Z,1029.67
2019-03-28T10:28:01.359Z,1029.71
2019-03-28T10:29:01.310Z,1029.72
2019-03-28T10:30:01.283Z,1029.66
2019-03-28T10:31:01.269Z,1029.70
2019-03-28T10:32:01.215Z,1029.72
2019-03-28T10:33:01.205Z,1029.72
2019-03-28T10:34:01.164Z,1029.68
2019-03-28T10:35:01.132Z,1029.73
2019-03-28T10:36:01.100Z,1029.77
2019-03-28T10:37:01.070Z,1029.72
2019-03-28T10:38:01.063Z,1029.74
2019-03-28T10:39:01.011Z,1029.74
2019-03-28T10:40:00.978Z,1029.80
2019-03-28T10:41:00.955Z,1029.73
2019-03-28T10:42:00.926Z,1029.78
2019-03-28T10:43:00.924Z,1029.76
2019-03-28T10:44:00.873Z,1029.75
2019-03-28T10:45:00.861Z,1029.74
2019-03-28T10:46:00.809Z,1029.76
2019-03-28T10:47:00.773Z,1029.77
2019-03-28T10:48:00.773Z,1029.75
2019-03-28T10:49:00.798Z,1029.76
2019-03-28T10:50:03.660Z,1029.76
2019-03-28T10:51:00.665Z,1029.83
2019-03-28T10:52:03.936Z,1029.77
2019-03-28T10:53:00.633Z,1029.75
2019-03-28T10:54:00.579Z,1029.80
2019-03-28T10:55:00.548Z,1029.79
2019-03-28T10:56:00.523Z,1029.79
2019-03-28T10:57:12.945Z,1029.78
2019-03-28T10:58:00.464Z,1029.79
2019-03-28T10:59:00.462Z,1029.78
2019-03-28T11:00:00.415Z,1029.78
2019-03-28T11:01:00.389Z,1029.81
2019-03-28T11:02:00.357Z,1029.82
2019-03-28T11:03:00.452Z,1029.82
2019-03-28T11:05:31.855Z,1029.80
2019-03-28T11:06:32.463Z,1029.82
2019-03-28T11:07:31.787Z,1029.83
2019-03-28T11:08:31.767Z,1029.84
2019-03-28T11:09:31.717Z,1029.84
2019-03-28T11:10:31.732Z,1029.83
2019-03-28T11:11:31.700Z,1029.84
2019-03-28T11:12:31.629Z,1029.84
2019-03-28T11:13:31.625Z,1029.86
2019-03-28T11:14:31.574Z,1029.81
2019-03-28T11:15:31.543Z,1029.91
2019-03-28T11:16:31.523Z,1029.85
2019-03-28T11:17:31.488Z,1029.94
2019-03-28T11:18:31.510Z,1029.94
2019-03-28T11:19:31.429Z,1029.91
2019-03-28T11:20:31.445Z,1029.90
2019-03-28T11:21:34.235Z,1029.88
2019-03-28T11:22:31.346Z,1029.89
2019-03-28T11:23:31.324Z,1029.85
2019-03-28T11:24:31.596Z,1029.85
2019-03-28T11:25:31.257Z,1029.85
2019-03-28T11:26:31.572Z,1029.85
2019-03-28T11:27:31.210Z,1029.85
2019-03-28T11:28:31.173Z,1029.96
2019-03-28T11:29:31.172Z,1029.97
2019-03-28T11:30:31.118Z,1029.91
2019-03-28T11:31:31.089Z,1029.89
2019-03-28T11:32:31.058Z,1029.89
2019-03-28T11:33:31.031Z,1029.90
2019-03-28T11:34:31.026Z,1029.93
2019-03-28T11:35:30.976Z,1029.91
2019-03-28T11:36:30.942Z,1029.94
2019-03-28T11:37:30.925Z,1029.97
2019-03-28T11:38:30.889Z,1030.03
2019-03-28T11:39:30.880Z,1029.99
2019-03-28T11:40:30.855Z,1029.97
2019-03-28T11:41:30.803Z,1029.98
2019-03-28T11:42:30.774Z,1030.00
2019-03-28T11:43:30.756Z,1030.06
2019-03-28T11:44:30.734Z,1030.04
2019-03-28T11:45:30.685Z,1030.03
2019-03-28T11:46:30.657Z,1030.04
2019-03-28T11:47:30.637Z,1030.07
2019-03-28T11:48:30.597Z,1030.06
2019-03-28T11:49:30.600Z,1030.08
2019-03-28T11:50:30.558Z,1030.03
2019-03-28T11:51:31.390Z,1030.05
2019-03-28T11:52:30.521Z,1030.05
2019-03-28T11:53:30.461Z,1030.10
2019-03-28T11:54:30.473Z,1030.15
2019-03-28T11:55:30.399Z,1030.09
2019-03-28T11:56:30.386Z,1030.12
2019-03-28T11:57:30.986Z,1030.14
2019-03-28T11:58:30.312Z,1030.16
2019-03-28T11:59:30.290Z,1030.20
2019-03-28T12:00:30.284Z,1030.15
2019-03-28T12:01:30.933Z,1030.20
2019-03-28T12:02:30.201Z,1030.15
2019-03-28T12:03:30.170Z,1030.13
2019-03-28T12:04:30.144Z,1030.12
2019-03-28T12:05:30.136Z,1030.17
2019-03-28T12:06:30.095Z,1030.25